createdAt,value
2017-11-16T00:01:45.618Z,26.20
2017-11-16T00:04:11.997Z,26.33
2017-11-16T00:06:38.405Z,25.70
2017-11-16T00:09:04.775Z,24.60
2017-11-16T00:11:31.140Z,25.75
2017-11-16T00:13:57.508Z,28.23
2017-11-16T00:18:55.996Z,25.90
2017-11-16T00:21:22.344Z,25.45
2017-11-16T00:26:21.564Z,22.40
2017-11-16T00:28:47.961Z,24.08
2017-11-16T00:31:14.308Z,22.85
2017-11-16T00:33:40.687Z,24.35
2017-11-16T00:36:07.807Z,24.42
2017-11-16T00:38:34.208Z,24.25
2017-11-16T00:41:00.579Z,24.37
2017-11-16T00:43:27.954Z,24.80
2017-11-16T00:45:54.321Z,23.87
2017-11-16T00:48:20.715Z,24.40
2017-11-16T00:50:47.099Z,23.73
2017-11-16T00:53:15.297Z,22.52
2017-11-16T00:55:41.687Z,21.33
2017-11-16T00:58:08.461Z,23.05
2017-11-16T01:00:34.824Z,23.25
2017-11-16T01:03:01.194Z,23.33
2017-11-16T01:05:28.582Z,24.83
2017-11-16T01:07:54.949Z,26.00
2017-11-16T01:10:21.452Z,26.98
2017-11-16T01:12:47.826Z,27.55
2017-11-16T01:15:14.212Z,27.37
2017-11-16T01:17:40.606Z,25.90
2017-11-16T01:20:06.981Z,26.40
2017-11-16T01:22:33.341Z,25.05
2017-11-16T01:24:59.708Z,27.87
2017-11-16T01:27:26.816Z,26.20
2017-11-16T01:29:54.184Z,26.25
2017-11-16T01:32:20.539Z,25.50
2017-11-16T01:34:47.653Z,27.25
2017-11-16T01:37:14.020Z,28.48
2017-11-16T01:39:41.639Z,28.30
2017-11-16T01:42:08.024Z,27.42
2017-11-16T01:44:35.163Z,27.55
2017-11-16T01:47:02.387Z,25.08
2017-11-16T01:49:28.756Z,25.42
2017-11-16T01:51:55.862Z,24.87
2017-11-16T01:54:22.240Z,23.30
2017-11-16T01:56:49.367Z,27.05
2017-11-16T01:59:16.419Z,25.42
2017-11-16T02:01:42.816Z,25.73
2017-11-16T02:04:09.477Z,22.75
2017-11-16T02:06:35.864Z,22.95
2017-11-16T02:09:02.292Z,22.92
2017-11-16T02:11:28.684Z,24.70
2017-11-16T02:13:55.091Z,22.40
2017-11-16T02:16:21.461Z,23.12
2017-11-16T02:18:48.603Z,22.90
2017-11-16T02:21:15.004Z,24.27
2017-11-16T02:23:41.399Z,21.20
2017-11-16T02:26:08.069Z,20.92
2017-11-16T02:28:34.485Z,21.80
2017-11-16T02:31:01.640Z,20.73
2017-11-16T02:33:28.067Z,22.55
2017-11-16T02:35:54.446Z,20.30
2017-11-16T02:38:20.871Z,19.98
2017-11-16T02:40:47.296Z,21.00
2017-11-16T02:43:13.724Z,20.62
2017-11-16T02:45:40.160Z,19.23
2017-11-16T02:48:06.565Z,18.08
2017-11-16T02:50:32.969Z,19.75
2017-11-16T02:53:00.108Z,18.37
2017-11-16T02:55:26.542Z,18.98
2017-11-16T02:57:52.964Z,18.23
2017-11-16T03:00:19.364Z,19.48
2017-11-16T03:02:45.787Z,20.65
2017-11-16T03:05:12.223Z,17.80
2017-11-16T03:07:38.613Z,20.27
2017-11-16T03:10:06.022Z,19.77
2017-11-16T03:12:32.408Z,19.95
2017-11-16T03:14:58.795Z,20.23
2017-11-16T03:17:25.229Z,20.95
2017-11-16T03:19:51.624Z,22.30
2017-11-16T03:22:18.014Z,21.45
2017-11-16T03:24:44.416Z,20.25
2017-11-16T03:27:11.859Z,23.60
2017-11-16T03:29:39.292Z,19.90
2017-11-16T03:32:06.433Z,18.05
2017-11-16T03:34:32.829Z,19.15
2017-11-16T03:36:59.208Z,19.25
2017-11-16T03:39:27.420Z,17.73
2017-11-16T03:41:53.817Z,17.12
2017-11-16T03:44:20.967Z,17.27
2017-11-16T03:46:48.110Z,17.23
2017-11-16T03:49:14.484Z,18.77
2017-11-16T03:51:40.880Z,18.25
2017-11-16T03:54:07.996Z,17.70
2017-11-16T03:56:34.382Z,17.05
2017-11-16T03:59:01.523Z,19.17
2017-11-16T04:01:29.652Z,19.80
2017-11-16T04:03:56.160Z,20.58
2017-11-16T04:06:22.560Z,19.08
2017-11-16T04:08:48.949Z,19.25
2017-11-16T04:11:15.397Z,20.80
2017-11-16T04:13:41.799Z,19.75
2017-11-16T04:16:08.179Z,20.75
2017-11-16T04:18:34.563Z,19.65
2017-11-16T04:21:00.986Z,18.50
2017-11-16T04:23:27.387Z,18.73
2017-11-16T04:25:54.495Z,17.50
2017-11-16T04:28:20.864Z,16.85
2017-11-16T04:30:48.260Z,17.87
2017-11-16T04:33:14.659Z,18.83
2017-11-16T04:35:41.027Z,18.70
2017-11-16T04:38:07.475Z,19.48
2017-11-16T04:40:33.836Z,18.83
2017-11-16T04:43:00.207Z,18.27
2017-11-16T04:45:27.314Z,18.00
2017-11-16T04:47:53.743Z,18.15
2017-11-16T04:50:20.112Z,17.90
2017-11-16T04:52:46.513Z,17.62
2017-11-16T04:55:12.893Z,17.80
2017-11-16T04:57:40.017Z,19.40
2017-11-16T05:00:06.408Z,19.08
2017-11-16T05:02:32.775Z,16.83
2017-11-16T05:04:59.145Z,17.55
2017-11-16T05:07:25.512Z,16.62
2017-11-16T05:09:51.872Z,17.30
2017-11-16T05:12:19.037Z,17.50
2017-11-16T05:14:45.423Z,15.50
2017-11-16T05:17:11.800Z,18.67
2017-11-16T05:19:38.189Z,18.00
2017-11-16T05:22:05.339Z,19.60
2017-11-16T05:24:31.716Z,18.12
2017-11-16T05:26:58.087Z,16.52
2017-11-16T05:29:24.468Z,15.48
2017-11-16T05:31:50.871Z,18.95
2017-11-16T05:34:17.221Z,17.85
2017-11-16T05:36:43.640Z,18.55
2017-11-16T05:39:10.032Z,17.45
2017-11-16T05:41:37.144Z,16.12
2017-11-16T05:44:03.537Z,16.77
2017-11-16T05:46:29.928Z,18.92
2017-11-16T05:48:56.299Z,14.95
2017-11-16T05:51:22.657Z,17.08
2017-11-16T05:53:49.026Z,18.52
2017-11-16T05:56:15.416Z,18.77
2017-11-16T05:58:41.836Z,18.17
2017-11-16T06:01:08.253Z,17.75
2017-11-16T06:03:34.622Z,19.23
2017-11-16T06:06:01.413Z,17.65
2017-11-16T06:08:28.534Z,17.62
2017-11-16T06:10:54.900Z,17.65
2017-11-16T06:13:22.000Z,17.73
2017-11-16T06:15:48.363Z,20.02
2017-11-16T06:18:14.736Z,19.52
2017-11-16T06:20:41.105Z,20.00
2017-11-16T06:23:07.484Z,18.37
2017-11-16T06:25:33.855Z,17.12
2017-11-16T06:28:00.279Z,19.00
2017-11-16T06:30:27.369Z,20.27
2017-11-16T06:32:54.499Z,19.80
2017-11-16T06:35:20.914Z,20.67
2017-11-16T06:37:48.036Z,17.65
2017-11-16T06:40:14.464Z,19.55
2017-11-16T06:42:41.593Z,17.08
2017-11-16T06:45:07.973Z,14.60
2017-11-16T06:47:34.336Z,15.07
2017-11-16T06:50:00.703Z,15.63
2017-11-16T06:52:27.804Z,17.20
2017-11-16T06:54:54.185Z,15.30
2017-11-16T06:57:21.283Z,18.33
2017-11-16T06:59:48.444Z,18.65
2017-11-16T07:02:14.824Z,20.58
2017-11-16T07:04:41.911Z,17.45
2017-11-16T07:07:09.306Z,20.00
2017-11-16T07:09:35.699Z,15.77
2017-11-16T07:12:02.079Z,17.52
2017-11-16T07:14:28.455Z,18.48
2017-11-16T07:16:54.822Z,18.35
2017-11-16T07:19:21.192Z,16.42
2017-11-16T07:21:48.361Z,18.12
2017-11-16T07:24:14.716Z,18.85
2017-11-16T07:26:41.076Z,15.35
2017-11-16T07:29:07.444Z,16.20
2017-11-16T07:31:34.548Z,18.45
2017-11-16T07:34:00.929Z,18.70
2017-11-16T07:36:28.084Z,16.48
2017-11-16T07:38:54.473Z,14.93
2017-11-16T07:41:20.914Z,16.52
2017-11-16T07:43:47.292Z,16.52
2017-11-16T07:46:13.718Z,15.77
2017-11-16T07:48:40.132Z,17.80
2017-11-16T07:51:07.316Z,16.65
2017-11-16T07:53:33.728Z,16.80
2017-11-16T07:56:00.880Z,15.80
2017-11-16T07:58:27.977Z,16.27
2017-11-16T08:00:54.347Z,16.62
2017-11-16T08:03:21.457Z,14.57
2017-11-16T08:05:47.812Z,17.23
2017-11-16T08:08:14.206Z,16.75
2017-11-16T08:10:40.593Z,15.63
2017-11-16T08:13:07.701Z,14.48
2017-11-16T08:15:34.052Z,16.42
2017-11-16T08:18:00.417Z,14.80
2017-11-16T08:20:28.437Z,14.75
2017-11-16T08:22:54.808Z,12.90
2017-11-16T08:25:21.172Z,15.80
2017-11-16T08:27:47.549Z,16.67
2017-11-16T08:30:13.924Z,17.65
2017-11-16T08:32:41.026Z,16.65
2017-11-16T08:35:08.417Z,14.20
2017-11-16T08:37:35.551Z,15.20
2017-11-16T08:40:01.917Z,15.57
2017-11-16T08:42:28.324Z,15.32
2017-11-16T08:44:54.744Z,18.52
2017-11-16T08:47:21.520Z,15.50
2017-11-16T08:49:48.676Z,15.00
2017-11-16T08:52:15.107Z,17.50
2017-11-16T08:54:42.257Z,16.27
2017-11-16T08:57:09.407Z,14.40
2017-11-16T08:59:36.556Z,16.20
2017-11-16T09:02:04.018Z,15.65
2017-11-16T09:04:31.187Z,16.40
2017-11-16T09:06:57.596Z,16.02
2017-11-16T09:09:24.736Z,16.58
2017-11-16T09:11:51.901Z,15.35
2017-11-16T09:14:19.072Z,16.20
2017-11-16T09:16:45.597Z,15.07
2017-11-16T09:19:12.012Z,15.05
2017-11-16T09:21:40.204Z,15.43
2017-11-16T09:24:06.610Z,15.95
2017-11-16T09:26:33.005Z,15.55
2017-11-16T09:29:00.433Z,16.75
2017-11-16T09:31:26.829Z,16.90
2017-11-16T09:33:53.239Z,15.50
2017-11-16T09:36:19.641Z,13.68
2017-11-16T09:38:46.052Z,14.95
2017-11-16T09:41:13.204Z,14.40
2017-11-16T09:43:40.319Z,15.43
2017-11-16T09:46:06.691Z,17.52
2017-11-16T09:48:33.801Z,16.05
2017-11-16T09:51:00.197Z,15.57
2017-11-16T09:53:26.568Z,15.93
2017-11-16T09:55:53.060Z,15.02
2017-11-16T09:58:19.457Z,16.37
2017-11-16T10:00:46.625Z,16.37
2017-11-16T10:03:13.737Z,16.95
2017-11-16T10:05:40.100Z,18.52
2017-11-16T10:08:07.204Z,16.85
2017-11-16T10:10:33.622Z,17.05
2017-11-16T10:12:59.986Z,18.58
2017-11-16T10:15:26.363Z,15.75
2017-11-16T10:17:52.728Z,15.25
2017-11-16T10:20:19.131Z,16.15
2017-11-16T10:22:45.557Z,17.02
2017-11-16T10:25:12.668Z,16.20
2017-11-16T10:27:39.030Z,15.93
2017-11-16T10:30:06.167Z,14.75
2017-11-16T10:32:33.300Z,15.65
2017-11-16T10:34:59.681Z,14.93
2017-11-16T10:37:26.802Z,16.90
2017-11-16T10:39:53.932Z,17.27
2017-11-16T10:42:20.373Z,13.82
2017-11-16T10:44:46.799Z,16.35
2017-11-16T10:47:13.231Z,15.00
2017-11-16T10:49:39.638Z,13.55
2017-11-16T10:52:06.046Z,15.88
2017-11-16T10:54:32.425Z,16.30
2017-11-16T10:56:58.810Z,14.57
2017-11-16T10:59:25.195Z,15.77
2017-11-16T11:01:51.568Z,14.68
2017-11-16T11:04:18.659Z,15.30
2017-11-16T11:06:45.021Z,15.73
2017-11-16T11:09:11.386Z,14.25
2017-11-16T11:11:37.780Z,15.18
2017-11-16T11:14:04.211Z,14.87
2017-11-16T11:16:30.593Z,14.68
2017-11-16T11:18:56.972Z,16.25
2017-11-16T11:21:23.372Z,14.63
2017-11-16T11:23:49.756Z,15.88
2017-11-16T11:26:16.135Z,17.75
2017-11-16T11:28:42.500Z,16.27
2017-11-16T11:31:08.878Z,17.02
2017-11-16T11:33:36.000Z,17.85
2017-11-16T11:36:02.369Z,17.05
2017-11-16T11:38:28.744Z,17.02
2017-11-16T11:40:55.111Z,15.43
2017-11-16T11:43:22.212Z,17.00
2017-11-16T11:45:49.584Z,17.08
2017-11-16T11:48:15.963Z,16.83
2017-11-16T11:50:43.080Z,17.80
2017-11-16T11:53:09.459Z,16.70
2017-11-16T11:55:35.826Z,17.92
2017-11-16T11:58:02.213Z,17.35
2017-11-16T12:00:29.341Z,16.85
2017-11-16T12:02:55.705Z,15.52
2017-11-16T12:05:22.110Z,16.80
2017-11-16T12:07:49.221Z,17.15
2017-11-16T12:10:16.606Z,15.32
2017-11-16T12:12:42.980Z,16.95
2017-11-16T12:15:09.353Z,18.37
2017-11-16T12:17:35.732Z,16.08
2017-11-16T12:20:02.885Z,17.80
2017-11-16T12:22:30.013Z,17.75
2017-11-16T12:24:56.372Z,15.60
2017-11-16T12:27:22.769Z,17.90
2017-11-16T12:29:49.213Z,16.62
2017-11-16T12:32:15.616Z,15.73
2017-11-16T12:34:42.033Z,15.25
2017-11-16T12:37:08.436Z,17.08
2017-11-16T12:39:34.879Z,16.98
2017-11-16T12:42:01.273Z,15.75
2017-11-16T12:44:27.672Z,17.15
2017-11-16T12:46:54.103Z,15.57
2017-11-16T12:49:20.523Z,13.75
2017-11-16T12:51:46.932Z,15.88
2017-11-16T12:54:14.068Z,15.27
2017-11-16T12:56:42.045Z,13.32
2017-11-16T12:59:09.159Z,12.63
2017-11-16T13:01:35.544Z,17.73
2017-11-16T13:04:01.945Z,16.10
2017-11-16T13:06:28.354Z,15.57
2017-11-16T13:08:54.732Z,17.12
2017-11-16T13:11:21.856Z,14.95
2017-11-16T13:13:48.212Z,15.98
2017-11-16T13:16:15.320Z,16.23
2017-11-16T13:18:41.720Z,15.55
2017-11-16T13:21:08.092Z,17.00
2017-11-16T13:23:34.479Z,15.77
2017-11-16T13:26:00.868Z,16.58
2017-11-16T13:28:27.280Z,16.30
2017-11-16T13:30:53.708Z,16.60
2017-11-16T13:33:20.072Z,16.55
2017-11-16T13:35:46.436Z,17.10
2017-11-16T13:38:12.813Z,17.45
2017-11-16T13:40:39.189Z,16.98
2017-11-16T13:43:06.301Z,18.17
2017-11-16T13:45:32.665Z,16.62
2017-11-16T13:47:59.786Z,16.65
2017-11-16T13:50:26.144Z,15.95
2017-11-16T13:52:53.257Z,17.52
2017-11-16T13:55:19.624Z,15.23
2017-11-16T13:57:46.056Z,18.25
2017-11-16T14:00:12.420Z,16.77
2017-11-16T14:02:38.780Z,17.12
2017-11-16T14:05:05.144Z,18.70
2017-11-16T14:07:31.520Z,18.35
2017-11-16T14:09:57.881Z,17.55
2017-11-16T14:12:24.249Z,17.98
2017-11-16T14:14:51.644Z,18.40
2017-11-16T14:17:18.045Z,18.60
2017-11-16T14:19:45.157Z,19.45
2017-11-16T14:22:11.533Z,18.02
2017-11-16T14:24:38.649Z,17.05
2017-11-16T14:27:05.000Z,18.77
2017-11-16T14:29:31.365Z,17.58
2017-11-16T14:31:57.757Z,17.33
2017-11-16T14:34:24.157Z,17.95
2017-11-16T14:36:50.557Z,17.75
2017-11-16T14:39:16.924Z,16.27
2017-11-16T14:41:43.292Z,16.62
2017-11-16T14:44:09.676Z,17.17
2017-11-16T14:46:36.068Z,17.92
2017-11-16T14:49:03.205Z,20.80
2017-11-16T14:51:30.592Z,17.48
2017-11-16T14:53:57.698Z,21.50
2017-11-16T14:56:24.068Z,18.02
2017-11-16T14:58:51.192Z,19.67
2017-11-16T15:01:17.577Z,20.40
2017-11-16T15:03:43.968Z,19.17
2017-11-16T15:06:10.325Z,19.80
2017-11-16T15:08:36.706Z,19.52
2017-11-16T15:11:03.074Z,19.65
2017-11-16T15:13:31.230Z,17.70
2017-11-16T15:15:57.624Z,17.58
2017-11-16T15:18:23.999Z,15.88
2017-11-16T15:20:50.380Z,18.15
2017-11-16T15:23:16.752Z,19.12
2017-11-16T15:25:43.109Z,17.55
2017-11-16T15:28:10.233Z,19.42
2017-11-16T15:30:36.649Z,18.48
2017-11-16T15:33:03.058Z,18.12
2017-11-16T15:35:29.437Z,18.40
2017-11-16T15:37:55.823Z,16.42
2017-11-16T15:40:22.207Z,16.35
2017-11-16T15:42:48.572Z,16.55
2017-11-16T15:45:16.799Z,18.58
2017-11-16T15:47:43.181Z,18.75
2017-11-16T15:50:10.316Z,18.80
2017-11-16T15:52:37.438Z,17.40
2017-11-16T15:55:04.568Z,19.00
2017-11-16T15:57:30.924Z,14.68
2017-11-16T15:59:57.284Z,15.10
2017-11-16T16:02:24.400Z,18.12
2017-11-16T16:04:50.777Z,16.95
2017-11-16T16:07:17.906Z,15.60
2017-11-16T16:09:45.310Z,17.45
2017-11-16T16:12:11.697Z,16.52
2017-11-16T16:14:38.406Z,17.60
2017-11-16T16:17:04.828Z,15.63
2017-11-16T16:19:31.201Z,18.02
2017-11-16T16:21:58.592Z,17.70
2017-11-16T16:24:25.000Z,16.90
2017-11-16T16:26:51.369Z,18.85
2017-11-16T16:29:17.732Z,17.27
2017-11-16T16:31:44.088Z,16.98
2017-11-16T16:34:10.477Z,19.15
2017-11-16T16:36:36.847Z,20.20
2017-11-16T16:39:03.274Z,21.00
2017-11-16T16:41:29.631Z,18.08
2017-11-16T16:43:56.743Z,18.00
2017-11-16T16:46:23.861Z,17.98
2017-11-16T16:48:50.233Z,17.55
2017-11-16T16:51:16.611Z,21.20
2017-11-16T16:53:43.716Z,16.58
2017-11-16T16:56:10.082Z,19.55
2017-11-16T16:58:37.192Z,18.33
2017-11-16T17:01:03.576Z,18.25
2017-11-16T17:03:30.689Z,19.15
2017-11-16T17:05:57.061Z,17.70
2017-11-16T17:08:25.188Z,17.58
2017-11-16T17:10:51.549Z,19.30
2017-11-16T17:13:18.647Z,18.52
2017-11-16T17:15:45.031Z,15.98
2017-11-16T17:18:12.152Z,18.30
2017-11-16T17:20:38.545Z,17.60
2017-11-16T17:23:04.936Z,17.80
2017-11-16T17:25:31.296Z,17.15
2017-11-16T17:27:58.392Z,18.20
2017-11-16T17:30:24.745Z,20.10
2017-11-16T17:32:51.152Z,20.55
2017-11-16T17:35:17.528Z,19.30
2017-11-16T17:37:44.645Z,17.85
2017-11-16T17:40:11.029Z,16.00
2017-11-16T17:42:37.399Z,17.10
2017-11-16T17:45:03.817Z,18.80
2017-11-16T17:47:30.181Z,19.40
2017-11-16T17:49:58.537Z,19.20
2017-11-16T17:52:24.921Z,19.85
2017-11-16T17:54:52.029Z,20.20
2017-11-16T17:57:20.143Z,19.00
2017-11-16T17:59:47.267Z,18.70
2017-11-16T18:02:13.659Z,19.45
2017-11-16T18:04:40.026Z,19.90
2017-11-16T18:07:06.387Z,26.12
2017-11-16T18:09:32.746Z,18.83
2017-11-16T18:11:59.135Z,18.27
2017-11-16T18:14:25.577Z,21.12
2017-11-16T18:16:51.941Z,23.52
2017-11-16T18:19:19.053Z,20.77
2017-11-16T18:21:45.438Z,19.85
2017-11-16T18:24:11.817Z,19.80
2017-11-16T18:26:38.229Z,21.35
2017-11-16T18:29:04.600Z,19.60
2017-11-16T18:31:30.984Z,19.02
2017-11-16T18:33:57.352Z,22.30
2017-11-16T18:36:23.735Z,22.98
2017-11-16T18:38:50.100Z,22.52
2017-11-16T18:41:16.468Z,21.37
2017-11-16T18:43:43.584Z,21.95
2017-11-16T18:46:09.949Z,21.35
2017-11-16T18:48:38.043Z,20.40
2017-11-16T18:51:04.415Z,20.10
2017-11-16T18:53:30.775Z,19.87
2017-11-16T18:55:57.149Z,19.50
2017-11-16T18:58:24.450Z,21.25
2017-11-16T19:00:50.964Z,19.73
2017-11-16T19:03:17.348Z,21.67
2017-11-16T19:05:44.483Z,24.45
2017-11-16T19:08:10.967Z,24.92
2017-11-16T19:10:37.344Z,22.92
2017-11-16T19:13:03.974Z,31.90
2017-11-16T19:15:30.360Z,21.23
2017-11-16T19:17:58.453Z,20.60
2017-11-16T19:20:24.850Z,19.95
2017-11-16T19:22:52.260Z,24.75
2017-11-16T19:25:18.620Z,21.05
2017-11-16T19:27:45.183Z,27.25
2017-11-16T19:30:12.470Z,34.33
2017-11-16T19:32:38.938Z,34.33
2017-11-16T19:35:05.660Z,22.87
2017-11-16T19:37:32.181Z,26.12
2017-11-16T19:39:58.540Z,30.45
2017-11-16T19:42:24.904Z,33.42
2017-11-16T19:44:53.223Z,21.80
2017-11-16T19:47:19.731Z,23.52
2017-11-16T19:49:46.157Z,30.10
2017-11-16T19:52:12.743Z,27.10
2017-11-16T19:54:39.289Z,36.13
2017-11-16T19:57:05.664Z,27.48
2017-11-16T19:59:33.125Z,22.65
2017-11-16T20:01:59.497Z,21.15
2017-11-16T20:04:26.010Z,22.35
2017-11-16T20:06:52.566Z,21.62
2017-11-16T20:09:19.187Z,21.30
2017-11-16T20:11:46.534Z,25.10
2017-11-16T20:14:13.076Z,25.00
2017-11-16T20:16:39.447Z,28.35
2017-11-16T20:19:05.804Z,29.05
2017-11-16T20:21:32.913Z,54.95
2017-11-16T20:23:59.268Z,34.50
2017-11-16T20:26:25.636Z,22.00
2017-11-16T20:28:53.225Z,31.27
2017-11-16T20:31:19.619Z,36.58
2017-11-16T20:33:46.762Z,74.68
2017-11-16T20:36:14.007Z,43.38
2017-11-16T20:38:47.253Z,38.90
2017-11-16T20:41:30.673Z,41.22
2017-11-16T20:44:08.852Z,60.25
2017-11-16T20:46:42.125Z,35.05
2017-11-16T20:49:14.720Z,22.77
2017-11-16T20:51:56.023Z,28.85
2017-11-16T20:54:30.138Z,22.52
2017-11-16T20:56:57.279Z,21.10
2017-11-16T20:59:25.436Z,21.95
2017-11-16T21:01:51.804Z,22.83
2017-11-16T21:04:18.208Z,24.65
2017-11-16T21:06:44.571Z,27.15
2017-11-16T21:09:10.972Z,68.87
2017-11-16T21:11:37.378Z,28.95
2017-11-16T21:14:03.749Z,24.40
2017-11-16T21:16:30.884Z,25.65
2017-11-16T21:18:57.252Z,22.83
2017-11-16T21:21:23.630Z,23.50
2017-11-16T21:23:49.979Z,23.17
2017-11-16T21:26:16.339Z,22.87
2017-11-16T21:28:43.440Z,21.70
2017-11-16T21:31:09.806Z,22.48
2017-11-16T21:33:36.920Z,20.23
2017-11-16T21:36:03.305Z,29.65
2017-11-16T21:38:30.416Z,37.22
2017-11-16T21:40:56.776Z,25.05
2017-11-16T21:43:23.931Z,21.65
2017-11-16T21:45:51.062Z,23.23
2017-11-16T21:48:18.350Z,22.50
2017-11-16T21:50:44.748Z,21.35
2017-11-16T21:53:11.124Z,22.37
2017-11-16T21:55:37.491Z,22.92
2017-11-16T21:58:03.873Z,34.42
2017-11-16T22:00:30.984Z,25.08
2017-11-16T22:02:57.350Z,22.42
2017-11-16T22:05:24.493Z,28.02
2017-11-16T22:07:51.600Z,22.27
2017-11-16T22:10:17.995Z,23.33
2017-11-16T22:12:44.364Z,24.00
2017-11-16T22:15:10.736Z,22.58
2017-11-16T22:17:37.843Z,23.23
2017-11-16T22:20:04.204Z,22.85
2017-11-16T22:22:30.572Z,22.75
2017-11-16T22:24:56.941Z,23.30
2017-11-16T22:27:23.312Z,22.62
2017-11-16T22:29:51.421Z,21.83
2017-11-16T22:32:17.836Z,25.23
2017-11-16T22:34:44.951Z,21.48
2017-11-16T22:37:11.307Z,23.75
2017-11-16T22:39:38.472Z,22.67
2017-11-16T22:42:05.587Z,23.30
2017-11-16T22:44:31.952Z,26.08
2017-11-16T22:46:59.057Z,23.27
2017-11-16T22:49:25.420Z,24.35
2017-11-16T22:51:53.544Z,24.40
2017-11-16T22:54:19.907Z,22.87
2017-11-16T22:56:46.648Z,23.60
2017-11-16T22:59:13.019Z,25.23
2017-11-16T23:01:40.436Z,23.77
2017-11-16T23:04:06.825Z,27.08
2017-11-16T23:06:33.235Z,25.88
2017-11-16T23:09:00.348Z,24.95
2017-11-16T23:11:26.724Z,22.90
2017-11-16T23:13:53.084Z,24.75
2017-11-16T23:16:19.488Z,24.98
2017-11-16T23:18:45.952Z,24.23
2017-11-16T23:21:12.322Z,24.02
2017-11-16T23:23:38.700Z,23.40
2017-11-16T23:26:05.068Z,28.62
2017-11-16T23:28:31.607Z,26.05
2017-11-16T23:30:57.988Z,22.52
2017-11-16T23:33:25.128Z,24.40
2017-11-16T23:35:52.285Z,21.27
2017-11-16T23:38:19.396Z,23.50
2017-11-16T23:40:45.856Z,28.10
2017-11-16T23:43:12.236Z,24.95
2017-11-16T23:45:38.609Z,24.50
2017-11-16T23:48:04.976Z,24.23
2017-11-16T23:50:31.354Z,24.33
2017-11-16T23:52:57.715Z,23.15
2017-11-16T23:55:24.086Z,24.90
2017-11-16T23:57:51.459Z,26.30
